Time;durP1;ratioP1;P1;durP2;ratioP2;P2;SDS_P1;SDS_P2;PMS_P1;PMS_P2;Temp;Humidity;BMP_temperature;BMP_pressure;BME280_temperature;BME280_humidity;BME280_pressure;Samples;Min_cycle;Max_cycle;Signal;HPM_P1;HPM_P2
2022/07/22 00:01:48;;;;;;;9.60;8.73;;;;;;;22.20;48.69;92955.16;5079854;28;20289;-70
2022/07/22 00:04:13;;;;;;;9.55;8.65;;;;;;;22.12;49.70;92950.75;5083026;28;20216;-70
2022/07/22 00:06:39;;;;;;;10.23;9.50;;;;;;;22.14;48.95;92953.84;5078135;28;20248;-71
2022/07/22 00:09:04;;;;;;;9.32;8.70;;;;;;;21.98;49.42;92950.38;5081271;28;20249;-70
2022/07/22 00:11:30;;;;;;;9.63;8.77;;;;;;;21.93;48.80;92955.97;5078668;28;20219;-70
2022/07/22 00:13:55;;;;;;;8.73;8.13;;;;;;;21.93;47.70;92951.41;5081946;28;20219;-70
2022/07/22 00:16:20;;;;;;;8.88;8.27;;;;;;;21.95;48.23;92951.06;5078706;28;20220;-70
2022/07/22 00:18:46;;;;;;;10.07;9.27;;;;;;;21.89;47.67;92933.81;5080046;28;20178;-72
2022/07/22 00:21:11;;;;;;;9.65;8.80;;;;;;;22.09;47.74;92951.44;5081353;28;20294;-71
2022/07/22 00:23:37;;;;;;;10.48;9.40;;;;;;;22.13;47.62;92947.75;5079784;28;20202;-70
2022/07/22 00:26:03;;;;;;;9.45;8.75;;;;;;;22.05;50.24;92947.91;5075452;28;20250;-71
2022/07/22 00:28:28;;;;;;;10.07;9.32;;;;;;;21.89;51.16;92957.75;5078511;28;20237;-70
2022/07/22 00:30:53;;;;;;;11.25;10.20;;;;;;;21.78;52.46;92960.13;5080476;28;21755;-70
2022/07/22 00:33:19;;;;;;;9.75;9.00;;;;;;;21.55;52.15;92952.97;5080987;28;20191;-70
2022/07/22 00:35:44;;;;;;;9.77;9.00;;;;;;;21.54;51.82;92962.06;5079964;28;20182;-70
2022/07/22 00:38:10;;;;;;;9.35;8.65;;;;;;;21.49;52.74;92964.94;5081149;28;20196;-70
2022/07/22 00:40:35;;;;;;;8.88;8.07;;;;;;;21.56;53.49;92965.13;5078644;28;20210;-71
2022/07/22 00:43:01;;;;;;;10.15;9.20;;;;;;;21.23;55.54;92967.97;5078380;28;20199;-71
2022/07/22 00:45:26;;;;;;;11.55;8.88;;;;;;;21.23;55.16;92967.22;5076899;28;20237;-71
2022/07/22 00:47:52;;;;;;;10.02;9.02;;;;;;;21.20;54.86;92962.59;5077951;28;20229;-70
2022/07/22 00:50:19;;;;;;;9.23;8.32;;;;;;;21.00;55.93;92956.28;5081403;28;20919;-71
2022/07/22 00:52:45;;;;;;;10.25;9.15;;;;;;;20.97;55.49;92969.44;5078983;28;20233;-70
2022/07/22 00:55:11;;;;;;;11.00;10.00;;;;;;;20.95;56.32;92959.13;5080493;28;20209;-70
2022/07/22 00:57:37;;;;;;;10.38;9.27;;;;;;;20.82;56.26;92954.19;5078387;28;20240;-70
2022/07/22 01:00:06;;;;;;;9.38;8.77;;;;;;;20.65;56.93;92940.00;5081089;28;20205;-70
2022/07/22 01:02:31;;;;;;;11.32;10.23;;;;;;;20.75;57.05;92953.97;5060040;28;20310;-72
2022/07/22 01:04:56;;;;;;;9.40;8.70;;;;;;;20.66;57.51;92949.53;5077321;28;21227;-70
2022/07/22 01:07:22;;;;;;;10.05;9.18;;;;;;;20.49;58.30;92943.66;5076730;28;20216;-70
2022/07/22 01:09:47;;;;;;;11.45;10.52;;;;;;;20.38;58.52;92946.00;5062445;28;20278;-70
2022/07/22 01:12:13;;;;;;;9.95;9.15;;;;;;;20.32;58.49;92938.56;5077720;28;20234;-70
2022/07/22 01:14:39;;;;;;;11.05;10.18;;;;;;;20.31;58.63;92943.09;5079766;28;20252;-70
2022/07/22 01:17:04;;;;;;;10.23;9.00;;;;;;;20.16;58.64;92938.44;5079017;28;20234;-71
2022/07/22 01:19:30;;;;;;;10.50;9.70;;;;;;;20.08;58.33;92941.91;5080619;28;21104;-70
2022/07/22 01:21:55;;;;;;;10.18;9.48;;;;;;;20.06;59.57;92935.41;5077167;28;20223;-70
2022/07/22 01:24:21;;;;;;;10.23;9.07;;;;;;;20.06;58.98;92956.63;5077978;28;20193;-70
2022/07/22 01:26:46;;;;;;;10.95;9.38;;;;;;;20.11;59.35;92961.72;5080441;28;20253;-70
2022/07/22 01:29:11;;;;;;;10.52;9.63;;;;;;;20.16;58.77;92958.88;5058822;28;20219;-71
2022/07/22 01:31:37;;;;;;;9.13;8.48;;;;;;;20.25;58.08;92955.03;5078989;28;20300;-71
2022/07/22 01:34:02;;;;;;;10.40;9.35;;;;;;;20.15;58.70;92952.81;5078414;28;20197;-72
2022/07/22 01:36:28;;;;;;;10.65;9.68;;;;;;;20.21;58.44;92954.13;5078280;28;20324;-70
2022/07/22 01:38:53;;;;;;;9.75;9.05;;;;;;;20.19;59.49;92956.34;5078832;28;20188;-70
2022/07/22 01:41:19;;;;;;;11.77;10.13;;;;;;;20.15;60.22;92944.84;5081175;28;20248;-70
2022/07/22 01:43:45;;;;;;;14.27;9.95;;;;;;;20.07;60.85;92951.00;5076766;28;20195;-70
2022/07/22 01:46:10;;;;;;;10.73;9.73;;;;;;;19.93;60.66;92931.16;5082221;28;20254;-70
2022/07/22 01:48:35;;;;;;;10.18;9.50;;;;;;;19.86;61.25;92942.31;5082518;28;20207;-70
2022/07/22 01:51:01;;;;;;;9.35;8.48;;;;;;;19.89;60.83;92944.28;5082736;28;20224;-70
2022/07/22 01:53:26;;;;;;;9.97;9.07;;;;;;;19.75;61.15;92935.84;5081673;28;20191;-69
2022/07/22 01:55:52;;;;;;;10.15;9.43;;;;;;;19.61;62.69;92948.59;5081414;28;20240;-70
2022/07/22 01:58:17;;;;;;;10.33;9.47;;;;;;;19.48;62.14;92946.25;5082984;28;20215;-70
2022/07/22 02:00:43;;;;;;;9.85;8.95;;;;;;;19.65;61.51;92952.19;5083173;28;20256;-70
2022/07/22 02:03:10;;;;;;;10.63;9.75;;;;;;;19.75;60.91;92957.06;5081629;28;20211;-70
2022/07/22 02:05:36;;;;;;;9.77;8.97;;;;;;;19.60;61.77;92960.31;5084301;28;20184;-70
2022/07/22 02:08:04;;;;;;;9.83;8.67;;;;;;;19.60;61.71;92960.31;5084034;28;20217;-70
2022/07/22 02:10:29;;;;;;;11.73;10.13;;;;;;;19.60;62.13;92968.25;5080955;28;20252;-71
2022/07/22 02:12:56;;;;;;;9.77;9.03;;;;;;;19.49;61.45;92947.78;5079583;28;20185;-70
2022/07/22 02:15:22;;;;;;;10.37;9.43;;;;;;;19.56;61.78;92958.66;5083242;28;20192;-70
2022/07/22 02:17:47;;;;;;;10.80;9.80;;;;;;;19.54;60.91;92960.84;5081503;28;20226;-70
2022/07/22 02:20:13;;;;;;;10.10;9.30;;;;;;;19.38;62.85;92951.94;5081132;28;20207;-70
2022/07/22 02:22:39;;;;;;;12.37;9.07;;;;;;;19.49;62.16;92966.31;5080929;28;20215;-69
2022/07/22 02:25:04;;;;;;;10.97;10.17;;;;;;;19.54;62.72;92964.25;5083354;28;20248;-71
2022/07/22 02:27:30;;;;;;;9.97;9.17;;;;;;;19.52;62.16;92958.50;5079012;28;20311;-70
2022/07/22 02:29:55;;;;;;;11.80;10.63;;;;;;;19.62;61.77;92971.38;5082837;28;20212;-70
2022/07/22 02:32:20;;;;;;;11.27;9.60;;;;;;;19.48;62.55;92965.56;5084039;28;20249;-71
2022/07/22 02:34:46;;;;;;;11.43;10.63;;;;;;;19.36;62.56;92970.81;5082746;28;20219;-70
2022/07/22 02:37:11;;;;;;;10.52;9.73;;;;;;;19.29;63.17;92970.53;5081417;28;20236;-71
2022/07/22 02:39:36;;;;;;;10.17;9.37;;;;;;;19.45;63.62;92976.81;5079024;28;20218;-70
2022/07/22 02:42:02;;;;;;;10.57;9.70;;;;;;;19.38;63.48;92965.94;5082530;28;20261;-70
2022/07/22 02:44:27;;;;;;;17.35;10.05;;;;;;;19.29;63.85;92970.53;5080252;28;20207;-70
2022/07/22 02:46:53;;;;;;;10.47;9.27;;;;;;;19.38;63.16;92975.78;5080371;28;20240;-70
2022/07/22 02:49:18;;;;;;;11.27;10.10;;;;;;;19.39;62.12;92975.47;5080606;28;20208;-70
2022/07/22 02:51:44;;;;;;;10.73;9.17;;;;;;;19.31;62.73;92972.84;5082098;28;20311;-70
2022/07/22 02:54:09;;;;;;;10.93;9.87;;;;;;;19.32;62.20;92964.59;5080060;28;20183;-70
2022/07/22 02:56:35;;;;;;;9.93;9.33;;;;;;;19.32;62.29;92964.59;5076560;28;20233;-70
2022/07/22 02:59:00;;;;;;;9.70;8.90;;;;;;;19.39;62.08;92964.88;5080134;28;20194;-70
2022/07/22 03:01:25;;;;;;;11.33;10.33;;;;;;;19.47;62.02;92971.19;5080779;28;20297;-69
2022/07/22 03:03:51;;;;;;;10.20;9.20;;;;;;;19.43;62.34;92965.75;5080160;28;20272;-70
2022/07/22 03:06:16;;;;;;;10.13;9.23;;;;;;;19.47;63.24;92965.88;5079157;28;20227;-70
2022/07/22 03:08:41;;;;;;;11.00;9.97;;;;;;;19.36;64.20;92957.56;5080440;28;20200;-70
2022/07/22 03:11:07;;;;;;;10.13;9.23;;;;;;;19.38;63.83;92962.53;5079735;28;20252;-70
2022/07/22 03:13:32;;;;;;;10.33;9.43;;;;;;;19.30;64.49;92956.19;5079070;28;20178;-70
2022/07/22 03:15:58;;;;;;;10.63;9.80;;;;;;;19.34;64.52;92961.63;5078184;28;21688;-70
2022/07/22 03:18:23;;;;;;;9.97;9.13;;;;;;;19.46;64.11;92959.81;5082625;28;20851;-70
2022/07/22 03:20:48;;;;;;;10.73;9.90;;;;;;;19.41;63.91;92946.75;5078359;28;20223;-70
2022/07/22 03:23:14;;;;;;;11.37;10.53;;;;;;;19.53;63.45;92949.47;5080275;28;20234;-71
2022/07/22 03:25:39;;;;;;;11.00;10.10;;;;;;;19.88;62.30;92973.78;5076295;28;20172;-70
2022/07/22 03:28:06;;;;;;;10.53;9.60;;;;;;;20.05;61.29;92961.13;5063030;28;20204;-70
2022/07/22 03:30:32;;;;;;;10.43;9.40;;;;;;;20.08;61.26;92971.09;5078243;28;20192;-70
2022/07/22 03:32:57;;;;;;;10.40;9.50;;;;;;;20.42;60.58;92970.72;5080890;28;20175;-70
2022/07/22 03:35:22;;;;;;;10.60;9.60;;;;;;;20.77;59.24;92970.31;5079616;28;20215;-70
2022/07/22 03:37:48;;;;;;;10.63;9.80;;;;;;;20.67;59.17;92974.19;5079723;28;20221;-70
2022/07/22 03:40:13;;;;;;;11.03;9.87;;;;;;;20.49;60.91;92963.03;5080621;28;20247;-70
2022/07/22 03:42:39;;;;;;;10.60;9.80;;;;;;;20.56;60.95;92971.19;5062976;28;20251;-70
2022/07/22 03:45:05;;;;;;;11.38;10.27;;;;;;;21.11;59.76;92965.34;5080431;28;20203;-70
2022/07/22 03:47:30;;;;;;;9.68;8.93;;;;;;;21.21;58.63;92974.75;5080512;28;20290;-70
2022/07/22 03:49:58;;;;;;;10.80;9.90;;;;;;;20.95;59.59;92971.66;5078702;28;20259;-71
2022/07/22 03:52:23;;;;;;;11.57;10.43;;;;;;;20.70;61.16;92976.94;5080023;28;20245;-70
2022/07/22 03:54:49;;;;;;;11.57;10.10;;;;;;;20.86;60.07;92974.41;5078099;28;20865;-71
2022/07/22 03:57:14;;;;;;;11.50;10.43;;;;;;;20.94;59.83;92962.13;5079800;28;20220;-71
2022/07/22 03:59:39;;;;;;;13.35;9.60;;;;;;;21.00;60.02;92953.63;5078653;28;20201;-70
2022/07/22 04:02:05;;;;;;;11.50;10.20;;;;;;;21.19;60.12;92974.31;5079610;28;20239;-71
2022/07/22 04:04:30;;;;;;;16.48;9.57;;;;;;;21.42;60.13;92980.66;5062397;28;20265;-70
2022/07/22 04:06:56;;;;;;;11.40;9.30;;;;;;;21.30;60.37;92973.53;5080198;28;20232;-70
2022/07/22 04:09:22;;;;;;;13.18;9.98;;;;;;;21.42;58.96;92976.13;5079697;28;20229;-70
2022/07/22 04:11:47;;;;;;;10.57;9.88;;;;;;;21.42;59.70;92985.97;5078885;28;20217;-70
2022/07/22 04:14:14;;;;;;;10.40;9.52;;;;;;;21.56;58.62;92991.72;5080536;28;20202;-71
2022/07/22 04:16:39;;;;;;;10.57;9.73;;;;;;;21.49;60.14;92991.53;5078173;28;20219;-70
2022/07/22 04:19:05;;;;;;;9.95;9.05;;;;;;;21.46;60.38;92995.63;5080161;28;20200;-70
2022/07/22 04:21:31;;;;;;;10.65;9.85;;;;;;;21.39;58.45;92981.34;5078993;28;20228;-71
2022/07/22 04:23:56;;;;;;;11.98;10.77;;;;;;;21.51;57.87;92989.31;5078390;28;20182;-70
2022/07/22 04:26:22;;;;;;;9.85;9.13;;;;;;;21.46;57.95;92989.53;5078436;28;20348;-71
2022/07/22 04:28:48;;;;;;;11.85;10.15;;;;;;;21.57;58.05;92996.69;5078780;28;20293;-71
2022/07/22 04:31:13;;;;;;;10.38;9.52;;;;;;;21.64;57.07;92988.16;5079166;28;20250;-70
2022/07/22 04:33:39;;;;;;;11.80;10.27;;;;;;;21.79;57.18;93000.78;5079342;28;20601;-70
2022/07/22 04:36:05;;;;;;;10.73;9.85;;;;;;;21.60;57.14;93005.88;5081116;28;20235;-68
2022/07/22 04:38:30;;;;;;;10.45;9.75;;;;;;;21.89;55.36;93002.94;5079412;28;20220;-70
2022/07/22 04:40:56;;;;;;;12.15;9.02;;;;;;;21.59;56.26;92999.00;5076916;28;20227;-70
2022/07/22 04:43:22;;;;;;;11.20;10.30;;;;;;;21.46;56.41;93008.91;5080236;28;20194;-70
2022/07/22 04:45:47;;;;;;;18.25;12.70;;;;;;;21.14;57.62;93006.38;5080305;28;20383;-72
2022/07/22 04:48:13;;;;;;;12.20;11.02;;;;;;;21.55;56.73;93016.75;5077077;28;20207;-70
2022/07/22 04:50:38;;;;;;;11.60;10.27;;;;;;;21.66;57.78;93012.50;5080223;28;20185;-70
2022/07/22 04:53:04;;;;;;;13.63;10.73;;;;;;;21.43;58.45;93014.13;5080774;28;20189;-70
2022/07/22 04:55:29;;;;;;;11.70;10.68;;;;;;;21.70;58.33;93019.47;5078803;28;20188;-71
2022/07/22 04:57:55;;;;;;;11.57;10.38;;;;;;;21.73;58.73;93023.34;5081216;28;20190;-70
2022/07/22 05:00:21;;;;;;;11.48;10.48;;;;;;;21.94;58.25;93031.94;5077154;28;20177;-71
2022/07/22 05:02:46;;;;;;;15.02;10.30;;;;;;;22.05;56.66;93014.41;5077526;28;20267;-70
2022/07/22 05:05:12;;;;;;;17.27;11.02;;;;;;;22.33;55.82;93027.69;5078006;28;20194;-71
2022/07/22 05:07:37;;;;;;;13.02;11.93;;;;;;;22.14;55.34;93033.66;5077736;28;20290;-70
2022/07/22 05:10:04;;;;;;;15.20;11.27;;;;;;;22.73;54.14;93028.38;5079113;28;20226;-70
2022/07/22 05:12:29;;;;;;;11.77;10.45;;;;;;;22.81;52.91;93030.09;5078229;28;20253;-70
2022/07/22 05:14:55;;;;;;;13.10;11.77;;;;;;;22.81;53.63;93025.56;5079924;28;20216;-70
2022/07/22 05:17:20;;;;;;;14.80;10.98;;;;;;;22.42;54.56;93029.09;5079642;28;20226;-70
2022/07/22 05:19:45;;;;;;;14.80;12.02;;;;;;;22.33;55.39;93031.13;5074051;28;20194;-70
2022/07/22 05:22:11;;;;;;;12.27;10.95;;;;;;;22.87;53.60;93026.84;5077218;28;20234;-70
2022/07/22 05:24:36;;;;;;;14.27;11.05;;;;;;;22.78;53.10;93020.91;5078501;28;20191;-70
2022/07/22 05:27:02;;;;;;;11.23;10.25;;;;;;;22.67;53.75;93030.53;5080065;28;20226;-71
2022/07/22 05:29:27;;;;;;;11.55;10.35;;;;;;;22.79;54.72;93029.66;5078704;28;20202;-70
2022/07/22 05:31:53;;;;;;;12.32;11.15;;;;;;;23.45;52.44;93041.94;5077814;28;20310;-70
2022/07/22 05:34:18;;;;;;;14.05;10.75;;;;;;;23.62;52.31;93046.13;5079506;28;20219;-70
2022/07/22 05:36:43;;;;;;;11.95;10.85;;;;;;;23.25;52.35;93035.00;5077611;28;20243;-70
2022/07/22 05:39:09;;;;;;;13.00;11.60;;;;;;;23.55;52.42;93057.38;5078496;28;20259;-71
2022/07/22 05:41:35;;;;;;;12.82;11.48;;;;;;;24.38;49.75;93048.06;5059633;28;20218;-70
2022/07/22 05:44:00;;;;;;;12.05;11.02;;;;;;;25.04;48.40;93053.91;5079806;28;20236;-70
2022/07/22 05:46:26;;;;;;;14.52;10.85;;;;;;;24.92;48.33;93056.72;5080535;28;20897;-71
2022/07/22 05:48:51;;;;;;;11.65;10.50;;;;;;;25.91;45.58;93043.78;5080977;28;20219;-71
2022/07/22 05:51:17;;;;;;;12.07;10.98;;;;;;;25.11;46.91;93054.78;5078147;28;20235;-70
2022/07/22 05:53:43;;;;;;;12.35;11.25;;;;;;;25.89;46.82;93048.72;5080553;28;20188;-70
2022/07/22 05:56:11;;;;;;;13.70;11.43;;;;;;;31.47;35.51;93063.28;5078408;28;20224;-70
2022/07/22 05:58:37;;;;;;;13.60;9.93;;;;;;;35.09;28.48;93072.44;5077510;28;20181;-71
2022/07/22 06:01:03;;;;;;;12.82;10.20;;;;;;;37.34;25.54;93083.03;5080104;28;20221;-70
2022/07/22 06:03:29;;;;;;;11.05;10.02;;;;;;;38.01;24.19;93089.13;5078658;28;20224;-69
2022/07/22 06:05:54;;;;;;;10.82;9.77;;;;;;;39.11;22.48;93092.34;5080640;28;20300;-71
2022/07/22 06:08:19;;;;;;;9.77;8.93;;;;;;;39.48;21.94;93088.59;5080504;28;20215;-72
2022/07/22 06:10:45;;;;;;;11.57;9.75;;;;;;;39.28;22.13;93099.13;5081180;28;20212;-70
2022/07/22 06:13:10;;;;;;;11.52;9.10;;;;;;;38.93;22.17;93086.75;5077691;28;20189;-70
2022/07/22 06:15:36;;;;;;;13.07;9.43;;;;;;;38.74;23.00;93090.56;5076178;28;20191;-71
2022/07/22 06:18:01;;;;;;;10.20;9.35;;;;;;;39.55;21.61;93089.09;5080175;28;20185;-71
2022/07/22 06:20:26;;;;;;;9.02;8.23;;;;;;;39.49;21.88;93093.63;5077869;28;20205;-71
2022/07/22 06:22:52;;;;;;;9.73;8.80;;;;;;;39.31;21.54;93099.00;5077033;28;20225;-72
2022/07/22 06:25:17;;;;;;;10.38;9.48;;;;;;;40.32;20.52;93068.81;5061720;28;20214;-71
2022/07/22 06:27:43;;;;;;;9.85;8.93;;;;;;;41.52;20.12;93110.94;5079073;28;20221;-71
2022/07/22 06:30:09;;;;;;;9.13;8.32;;;;;;;41.29;19.80;93103.34;5078025;28;20184;-71
2022/07/22 06:32:34;;;;;;;13.55;8.25;;;;;;;41.28;19.82;93096.38;5081768;28;20213;-71
2022/07/22 06:34:59;;;;;;;9.48;8.32;;;;;;;38.86;22.54;93097.91;5080256;28;20186;-72
2022/07/22 06:37:25;;;;;;;9.73;8.35;;;;;;;39.05;21.92;93096.88;5065942;28;20248;-71
2022/07/22 06:39:50;;;;;;;10.68;8.23;;;;;;;41.04;20.35;93101.72;5083437;28;20185;-71
2022/07/22 06:42:16;;;;;;;8.75;7.95;;;;;;;39.84;21.43;93096.97;5080278;28;20235;-72
2022/07/22 06:44:41;;;;;;;9.13;8.23;;;;;;;37.98;22.98;93090.75;5081698;28;20189;-71
2022/07/22 06:47:06;;;;;;;12.93;8.70;;;;;;;36.99;24.14;93090.25;5082228;28;20217;-71
2022/07/22 06:49:32;;;;;;;9.25;8.45;;;;;;;34.45;27.38;93084.97;5081513;28;20216;-71
2022/07/22 06:51:57;;;;;;;10.18;9.10;;;;;;;31.36;31.44;93078.78;5061704;28;20655;-72
2022/07/22 06:54:22;;;;;;;11.20;8.80;;;;;;;29.19;35.77;93080.06;5081923;28;20185;-71
2022/07/22 06:56:48;;;;;;;12.73;9.00;;;;;;;28.77;37.03;93069.97;5060704;28;20222;-72
2022/07/22 06:59:13;;;;;;;10.23;8.95;;;;;;;28.37;38.52;93067.50;5081037;28;20197;-71
2022/07/22 07:01:39;;;;;;;9.55;8.65;;;;;;;28.10;39.45;93066.97;5081187;28;20224;-71
2022/07/22 07:04:04;;;;;;;10.57;9.40;;;;;;;27.17;40.28;93059.75;5083077;28;20253;-71
2022/07/22 07:06:30;;;;;;;11.63;10.43;;;;;;;28.17;39.04;93060.88;5079073;28;20224;-71
2022/07/22 07:08:57;;;;;;;15.75;9.68;;;;;;;28.51;38.86;93059.53;5081503;28;20220;-72
2022/07/22 07:11:23;;;;;;;10.65;9.55;;;;;;;27.58;39.48;93053.97;5081484;28;20288;-71
2022/07/22 07:13:48;;;;;;;9.88;9.07;;;;;;;28.33;38.92;93071.31;5082237;28;20214;-72
2022/07/22 07:16:13;;;;;;;18.10;9.27;;;;;;;28.23;39.84;93065.50;5078862;28;20270;-71
2022/07/22 07:18:39;;;;;;;13.65;9.48;;;;;;;27.92;39.91;93073.41;5085899;28;20215;-70
2022/07/22 07:21:04;;;;;;;12.88;10.20;;;;;;;27.62;39.30;93072.78;5080889;28;20228;-71
2022/07/22 07:23:30;;;;;;;9.48;8.60;;;;;;;28.11;38.34;93057.78;5080797;28;20239;-71
2022/07/22 07:25:55;;;;;;;9.95;8.65;;;;;;;27.80;38.65;93063.69;5079865;28;20233;-70
2022/07/22 07:28:21;;;;;;;16.05;9.00;;;;;;;28.15;37.91;93065.84;5081592;28;20230;-71
2022/07/22 07:30:46;;;;;;;9.73;9.02;;;;;;;27.41;37.86;93075.31;5080906;28;20250;-71
2022/07/22 07:33:12;;;;;;;9.38;8.77;;;;;;;27.76;38.06;93079.03;5062081;28;20193;-71
2022/07/22 07:35:37;;;;;;;12.20;9.35;;;;;;;27.57;38.05;93078.47;5082103;28;20216;-71
2022/07/22 07:38:03;;;;;;;9.68;8.98;;;;;;;27.87;38.28;93076.41;5083931;28;20192;-70
2022/07/22 07:40:28;;;;;;;8.77;8.07;;;;;;;28.24;37.79;93085.84;5082006;28;20199;-72
2022/07/22 07:42:54;;;;;;;10.50;9.70;;;;;;;28.27;37.47;93078.19;5077979;28;20207;-71
2022/07/22 07:45:19;;;;;;;10.05;8.68;;;;;;;28.14;37.89;93077.75;5079235;28;20181;-71
2022/07/22 07:47:45;;;;;;;11.02;9.27;;;;;;;28.23;38.23;93072.81;5082177;28;20250;-70
2022/07/22 07:50:11;;;;;;;9.73;8.73;;;;;;;28.23;38.85;93080.84;5079342;28;20186;-71
2022/07/22 07:52:47;;;;;;;8.55;7.95;;;;;;;28.21;35.21;93073.19;5080129;28;20256;-71
2022/07/22 07:55:13;;;;;;;9.50;8.63;;;;;;;28.27;36.00;93088.94;5076194;28;20207;-70
2022/07/22 07:57:40;;;;;;;9.77;9.02;;;;;;;28.18;36.81;93086.59;5079628;28;20213;-71
2022/07/22 08:00:09;;;;;;;8.77;8.10;;;;;;;28.39;37.63;93086.66;5077801;28;20189;-70
2022/07/22 08:02:34;;;;;;;9.23;8.40;;;;;;;28.46;38.06;93085.94;5078718;28;20232;-71
2022/07/22 08:05:01;;;;;;;9.35;8.55;;;;;;;28.63;37.72;93086.03;5080675;28;21040;-70
2022/07/22 08:07:27;;;;;;;9.20;8.23;;;;;;;28.55;37.79;93084.47;5079066;28;20218;-70
2022/07/22 08:09:53;;;;;;;9.90;8.90;;;;;;;29.01;35.20;93088.09;5080525;28;20213;-70
2022/07/22 08:12:18;;;;;;;9.30;8.07;;;;;;;28.92;36.55;93084.22;5079156;28;20232;-71
2022/07/22 08:14:44;;;;;;;9.10;8.30;;;;;;;29.02;34.06;93086.16;5081264;28;20195;-70
2022/07/22 08:17:09;;;;;;;9.13;8.43;;;;;;;28.89;35.73;93080.34;5080305;28;20216;-71
2022/07/22 08:19:35;;;;;;;10.60;8.45;;;;;;;28.82;36.98;93085.72;5081496;28;20197;-70
2022/07/22 08:22:00;;;;;;;8.50;7.88;;;;;;;29.13;34.82;93093.13;5076493;28;20245;-71
2022/07/22 08:24:26;;;;;;;8.60;7.78;;;;;;;28.81;33.34;93091.47;5083502;28;20246;-72
2022/07/22 08:26:51;;;;;;;9.20;8.38;;;;;;;29.08;34.59;93098.09;5078471;28;20286;-71
2022/07/22 08:29:17;;;;;;;8.48;7.68;;;;;;;29.20;33.41;93106.56;5078935;28;20268;-71
2022/07/22 08:31:42;;;;;;;8.63;8.02;;;;;;;29.06;32.09;93098.47;5077258;28;20231;-71
2022/07/22 08:34:08;;;;;;;8.60;8.00;;;;;;;28.93;33.61;93091.91;5079535;28;20491;-70
2022/07/22 08:36:33;;;;;;;8.10;7.55;;;;;;;29.01;33.41;93095.38;5079981;28;20233;-73
2022/07/22 08:38:59;;;;;;;9.02;8.32;;;;;;;28.36;33.88;93095.47;5079336;28;20187;-71
2022/07/22 08:41:25;;;;;;;8.38;7.88;;;;;;;28.51;34.22;93089.06;5080153;28;20235;-71
2022/07/22 08:43:51;;;;;;;8.80;7.95;;;;;;;28.97;33.81;93095.34;5078647;28;20199;-71
2022/07/22 08:46:17;;;;;;;9.45;8.57;;;;;;;28.90;33.83;93098.03;5078070;28;20249;-70
2022/07/22 08:48:43;;;;;;;9.15;8.38;;;;;;;29.05;32.86;93098.81;5080012;28;20208;-73
2022/07/22 08:51:09;;;;;;;8.77;8.13;;;;;;;28.82;32.34;93101.06;5078735;28;20259;-71
2022/07/22 08:53:34;;;;;;;9.25;7.97;;;;;;;28.61;33.10;93092.97;5079102;28;20184;-70
2022/07/22 08:56:00;;;;;;;8.65;7.93;;;;;;;28.98;32.67;93096.13;5080423;28;20232;-71
2022/07/22 08:58:26;;;;;;;9.02;8.38;;;;;;;29.01;32.71;93090.00;5082228;28;20210;-72
2022/07/22 09:01:08;;;;;;;8.50;7.82;;;;;;;29.40;31.76;93107.00;5061923;28;20288;-70
2022/07/22 09:03:33;;;;;;;13.02;7.95;;;;;;;29.32;31.68;93108.13;5078511;28;20224;-70
2022/07/22 09:05:59;;;;;;;8.90;8.18;;;;;;;29.24;31.89;93101.97;5076330;28;20266;-71
2022/07/22 09:08:24;;;;;;;8.32;7.63;;;;;;;29.08;32.81;93101.56;5062102;28;20218;-71
2022/07/22 09:10:50;;;;;;;8.50;7.75;;;;;;;29.39;32.82;93106.22;5079297;28;20243;-70
2022/07/22 09:13:16;;;;;;;8.95;8.15;;;;;;;29.64;32.36;93111.63;5078782;28;20174;-70
2022/07/22 09:15:53;;;;;;;8.98;8.10;;;;;;;29.47;32.74;93110.47;5078707;28;20187;-71
2022/07/22 09:18:18;;;;;;;9.40;7.15;;;;;;;29.57;32.14;93108.94;5077076;28;20191;-71
2022/07/22 09:20:44;;;;;;;9.48;8.50;;;;;;;29.91;30.96;93117.41;5077715;28;20240;-71
2022/07/22 09:23:21;;;;;;;8.30;7.70;;;;;;;29.54;30.98;93118.53;5078904;28;20189;-71
2022/07/22 09:25:47;;;;;;;9.30;8.38;;;;;;;29.49;30.39;93107.38;5078723;28;20169;-71
2022/07/22 09:28:16;;;;;;;9.25;8.45;;;;;;;29.75;29.99;93117.78;5080803;28;20218;-71
2022/07/22 09:30:48;;;;;;;9.13;8.48;;;;;;;29.73;31.60;93110.09;5075951;28;20832;-71
2022/07/22 09:33:14;;;;;;;8.65;8.00;;;;;;;29.58;31.44;93102.38;5079237;28;20183;-72
2022/07/22 09:35:39;;;;;;;8.90;8.20;;;;;;;29.44;30.75;93089.69;5062308;28;20252;-70
2022/07/22 09:38:10;;;;;;;8.60;8.00;;;;;;;29.76;30.86;93094.34;5076087;28;20204;-71
2022/07/22 09:40:38;;;;;;;8.30;7.40;;;;;;;30.03;31.41;93103.53;5073806;28;20208;-72
2022/07/22 09:43:12;;;;;;;9.80;8.35;;;;;;;30.11;30.79;93107.75;5079840;28;20193;-71
2022/07/22 09:45:57;;;;;;;8.02;7.53;;;;;;;29.98;31.20;93103.94;5079332;28;20421;-71
2022/07/22 09:48:23;;;;;;;8.57;7.88;;;;;;;29.97;30.33;93108.53;5078754;28;20282;-71
2022/07/22 09:50:50;;;;;;;8.25;7.65;;;;;;;30.06;30.05;93111.59;5077974;28;20232;-71
2022/07/22 09:53:17;;;;;;;9.10;8.40;;;;;;;29.58;30.41;93105.84;5081250;28;20186;-71
2022/07/22 09:55:43;;;;;;;8.75;8.05;;;;;;;30.02;29.54;93100.09;5076390;28;20208;-71
2022/07/22 09:58:08;;;;;;;9.10;8.40;;;;;;;29.75;31.04;93096.25;5080936;28;20253;-71
2022/07/22 10:00:35;;;;;;;8.38;7.78;;;;;;;29.31;30.43;93093.91;5076066;28;20264;-72
2022/07/22 10:03:03;;;;;;;8.70;7.97;;;;;;;29.44;31.06;93092.38;5078456;28;20289;-71
2022/07/22 10:05:31;;;;;;;9.23;8.63;;;;;;;29.53;31.21;93079.31;5080742;28;20192;-73
2022/07/22 10:07:57;;;;;;;9.18;8.45;;;;;;;29.59;31.42;93102.00;5077013;28;20200;-71
2022/07/22 10:10:24;;;;;;;9.32;8.55;;;;;;;29.31;31.17;93087.78;5082638;28;20211;-71
2022/07/22 10:12:52;;;;;;;11.70;8.00;;;;;;;29.82;32.03;93090.09;5080131;28;20221;-70
2022/07/22 10:15:19;;;;;;;8.25;7.60;;;;;;;29.99;30.71;93089.31;5081925;28;20187;-71
2022/07/22 10:17:49;;;;;;;9.02;8.43;;;;;;;30.05;30.83;93083.16;5082854;28;20217;-71
2022/07/22 10:20:21;;;;;;;9.18;8.48;;;;;;;30.18;31.85;93088.88;5082710;28;20177;-71
2022/07/22 10:22:52;;;;;;;9.52;8.80;;;;;;;30.38;30.81;93082.72;5080043;28;20312;-71
2022/07/22 10:25:19;;;;;;;9.00;8.18;;;;;;;30.23;30.03;93075.81;5082737;28;20182;-71
2022/07/22 10:27:56;;;;;;;9.50;8.77;;;;;;;30.02;30.82;93080.44;5079056;28;20222;-71
2022/07/22 10:30:33;;;;;;;8.98;8.45;;;;;;;29.66;31.08;93077.81;5080930;28;20264;-71
2022/07/22 10:33:07;;;;;;;9.20;8.50;;;;;;;29.97;30.49;93078.13;5083358;28;20277;-71
2022/07/22 10:35:35;;;;;;;8.95;8.35;;;;;;;30.29;30.19;93074.25;5080273;28;20202;-71
2022/07/22 10:38:04;;;;;;;9.13;8.52;;;;;;;30.59;30.30;93084.53;5082019;28;20192;-71
2022/07/22 10:40:44;;;;;;;8.25;7.75;;;;;;;30.59;30.88;93084.53;5078468;28;20192;-71
2022/07/22 10:43:10;;;;;;;8.90;8.23;;;;;;;30.53;30.89;93080.72;5080689;28;20215;-70
2022/07/22 10:45:40;;;;;;;8.88;8.07;;;;;;;30.56;30.60;93082.63;5078442;28;20188;-71
2022/07/22 10:48:11;;;;;;;9.40;8.63;;;;;;;30.41;29.95;93073.84;5080855;28;20239;-71
2022/07/22 10:50:40;;;;;;;9.02;8.35;;;;;;;30.63;28.90;93079.91;5080673;28;20185;-71
2022/07/22 10:53:20;;;;;;;9.95;9.07;;;;;;;30.59;29.33;93074.53;5063783;28;20249;-70
2022/07/22 10:56:02;;;;;;;9.48;8.57;;;;;;;30.67;29.77;93070.66;5079945;28;20184;-71
2022/07/22 10:58:53;;;;;;;9.18;8.45;;;;;;;31.05;30.09;93074.34;5078985;28;20181;-71
2022/07/22 11:01:21;;;;;;;10.25;9.18;;;;;;;31.05;29.95;93071.63;5079438;28;20240;-71
2022/07/22 11:03:48;;;;;;;11.60;8.82;;;;;;;31.27;29.97;93070.31;5082692;28;20254;-71
2022/07/22 11:06:14;;;;;;;9.00;8.20;;;;;;;31.28;30.07;93063.78;5078271;28;20251;-71
2022/07/22 11:08:40;;;;;;;8.93;8.13;;;;;;;31.29;29.61;93068.00;5064849;28;20272;-71
2022/07/22 11:11:06;;;;;;;9.20;8.10;;;;;;;31.17;28.58;93060.38;5079503;28;20248;-70
2022/07/22 11:13:37;;;;;;;8.70;8.02;;;;;;;31.10;29.03;93065.81;5081812;28;20193;-71
2022/07/22 11:16:23;;;;;;;8.98;8.07;;;;;;;30.91;29.10;93064.38;5079548;28;20237;-71
2022/07/22 11:19:01;;;;;;;9.48;8.50;;;;;;;31.10;30.21;93069.28;5064637;28;20745;-71
2022/07/22 11:21:30;;;;;;;8.38;7.78;;;;;;;30.69;30.09;93067.56;5078324;28;20233;-72
2022/07/22 11:23:58;;;;;;;9.27;8.65;;;;;;;30.55;29.62;93056.84;5078268;28;20193;-71